首页
METAR-TAF:

METAR-TAF

机场 :

布拉格, 捷克共和国

纬度: 50-12-59N, 经度: 014-23-42E, 海拔: 280米

当前天气观测

该预报发布于16小时和1分钟前的13:00 UTC
风速6节,风向西
温度 5°C
湿度 93%
气压 1003 hPa
能見度: 9000
散云层高于600英尺
阴天层高于3600英尺
小雨

METAR: LKVO 131300Z 28006KT 9000 -RA SCT006 OVC036 05/04 Q1003

时间: 06:01 (05:01 UTC)


TAF: 丢失

超过4000个机场的气象观测和天气预报(METAR&TAF报告)。

可查询的气象台以黄色和红色小点在地图上表示。

将鼠标移到小点上方,可查看气象台名称。

然后点击查看天气观测和预报。

如需切换地图:点击带黑十字的绿色按钮放大地图;点击带横线的绿色按钮缩小地图;或者点击绿色箭头查看邻近地区的地图。


METAR-TAF: